createdAt,value
2018-10-06T06:42:09.014Z,0.00
2018-10-06T06:43:09.652Z,0.00
2018-10-06T06:44:10.464Z,0.00
2018-10-06T06:45:11.207Z,0.00
2018-10-06T06:46:13.846Z,0.00
2018-10-06T06:47:14.392Z,0.00
2018-10-06T06:48:15.083Z,0.00
2018-10-06T06:49:15.720Z,0.00
2018-10-06T06:50:16.383Z,0.00
2018-10-06T06:51:17.053Z,0.00
2018-10-06T06:52:17.709Z,0.00
2018-10-06T06:53:18.425Z,0.00
2018-10-06T06:54:19.120Z,0.00
2018-10-06T06:55:19.772Z,0.00
2018-10-06T06:56:20.427Z,0.00
2018-10-06T06:57:21.121Z,0.00
2018-10-06T06:58:21.910Z,0.00
2018-10-06T06:59:22.549Z,0.00
2018-10-06T07:00:23.349Z,0.00
2018-10-06T07:01:24.036Z,0.00
2018-10-06T07:02:25.815Z,0.00
2018-10-06T07:03:26.512Z,0.00
2018-10-06T07:04:48.346Z,0.00
2018-10-06T07:05:49.113Z,0.00
2018-10-06T07:07:04.554Z,0.00
2018-10-06T07:08:05.200Z,0.00
2018-10-06T07:09:07.028Z,0.00
2018-10-06T07:10:07.676Z,0.00
2018-10-06T07:11:09.496Z,0.00
2018-10-06T07:12:10.153Z,0.00
2018-10-06T07:13:10.838Z,0.00
2018-10-06T07:14:12.691Z,0.00
2018-10-06T07:15:13.394Z,0.00
2018-10-06T07:16:14.124Z,0.00
2018-10-06T07:17:14.748Z,0.00
2018-10-06T07:18:16.620Z,0.00
2018-10-06T07:19:17.256Z,0.00
2018-10-06T07:20:18.052Z,0.00
2018-10-06T07:21:18.707Z,0.00
2018-10-06T07:22:19.516Z,0.00
2018-10-06T07:23:20.169Z,0.00
2018-10-06T07:24:25.652Z,0.00
2018-10-06T07:25:26.347Z,0.00
2018-10-06T07:26:27.101Z,0.00
2018-10-06T07:27:27.787Z,0.00
2018-10-06T07:28:29.621Z,0.00
2018-10-06T07:29:30.192Z,0.00
2018-10-06T07:30:30.902Z,0.00
2018-10-06T07:31:31.584Z,0.00
2018-10-06T07:32:32.436Z,0.00
2018-10-06T07:33:33.146Z,0.00
2018-10-06T07:34:34.094Z,0.00
2018-10-06T07:35:34.679Z,0.00
2018-10-06T07:36:35.361Z,0.00
2018-10-06T07:37:36.071Z,0.00
2018-10-06T07:38:36.674Z,0.00
2018-10-06T07:39:38.461Z,0.00
2018-10-06T07:40:39.066Z,0.00
2018-10-06T07:41:39.955Z,0.00
2018-10-06T07:42:40.590Z,0.00
2018-10-06T07:43:42.375Z,0.00
2018-10-06T07:44:43.085Z,0.00
2018-10-06T07:45:46.056Z,0.00
2018-10-06T07:46:46.653Z,0.00
2018-10-06T07:47:48.432Z,0.00
2018-10-06T07:48:49.229Z,0.00
2018-10-06T07:49:52.409Z,0.00
2018-10-06T07:50:52.748Z,0.00
2018-10-06T07:52:08.051Z,0.00
2018-10-06T07:53:08.801Z,0.00
2018-10-06T08:09:56.123Z,3.00
2018-10-06T08:10:56.678Z,31.00
2018-10-06T08:11:58.651Z,52.00
2018-10-06T08:12:59.248Z,11.00
2018-10-06T08:13:59.803Z,35.00
2018-10-06T08:15:00.369Z,71.00
2018-10-06T08:16:01.290Z,83.00
2018-10-06T08:17:01.812Z,85.00
2018-10-06T08:18:02.289Z,81.00
2018-10-06T08:19:02.742Z,87.00
2018-10-06T08:20:03.253Z,87.00
2018-10-06T08:21:04.495Z,54.00
2018-10-06T08:22:05.122Z,60.00
2018-10-06T08:23:06.206Z,22.00
2018-10-06T08:24:06.791Z,14.00
2018-10-06T08:25:07.518Z,13.00
2018-10-06T08:26:08.191Z,0.00
2018-10-06T08:27:08.827Z,0.00
2018-10-06T08:28:09.670Z,0.00
2018-10-06T08:29:10.848Z,3.00
2018-10-06T08:30:11.982Z,1.00
2018-10-06T08:31:12.635Z,1.00
2018-10-06T08:32:13.283Z,0.00
2018-10-06T08:33:13.932Z,0.00
2018-10-06T08:34:15.039Z,0.00
2018-10-06T08:35:15.985Z,2.00
2018-10-06T08:36:16.637Z,0.00
2018-10-06T08:37:17.313Z,0.00
2018-10-06T08:38:18.017Z,0.00
2018-10-06T08:39:18.667Z,0.00
2018-10-06T08:40:19.354Z,0.00
2018-10-06T08:41:20.003Z,12.00
2018-10-06T08:42:20.499Z,27.00
2018-10-06T08:43:21.554Z,56.00
2018-10-06T08:44:22.190Z,8.00
2018-10-06T08:45:23.052Z,6.00
2018-10-06T08:46:23.633Z,54.00
2018-10-06T08:47:24.465Z,50.00
2018-10-06T08:48:24.991Z,44.00
2018-10-06T08:49:25.689Z,82.00
2018-10-06T08:50:26.587Z,77.00
2018-10-06T08:51:27.634Z,44.00
2018-10-06T08:52:28.379Z,66.00
2018-10-06T08:53:29.504Z,14.00
2018-10-06T08:54:30.133Z,4.00
2018-10-06T08:55:30.654Z,2.00
2018-10-06T08:56:31.842Z,5.00
2018-10-06T08:57:32.305Z,48.00
2018-10-06T08:58:33.851Z,87.00
2018-10-06T08:59:34.367Z,80.00
2018-10-06T09:00:34.922Z,71.00
2018-10-06T09:01:35.458Z,86.00
2018-10-06T09:02:35.968Z,87.00
2018-10-06T09:03:36.466Z,87.00
2018-10-06T09:04:36.976Z,87.00
2018-10-06T09:05:37.695Z,86.00
2018-10-06T09:06:38.191Z,82.00
2018-10-06T09:07:38.727Z,87.00
2018-10-06T09:08:39.259Z,87.00
2018-10-06T09:09:39.752Z,87.00
2018-10-06T09:10:40.286Z,87.00
2018-10-06T09:11:40.790Z,87.00
2018-10-06T09:12:41.453Z,87.00
2018-10-06T09:13:41.815Z,87.00
2018-10-06T09:14:42.385Z,87.00
2018-10-06T09:15:42.812Z,87.00
2018-10-06T09:16:43.288Z,87.00
2018-10-06T09:17:44.913Z,87.00
2018-10-06T09:18:45.338Z,87.00
2018-10-06T09:19:45.872Z,87.00
2018-10-06T09:20:46.369Z,87.00
2018-10-06T09:21:47.926Z,87.00
2018-10-06T09:22:48.431Z,87.00
2018-10-06T09:23:49.994Z,86.00
2018-10-06T09:24:50.501Z,87.00
2018-10-06T09:25:51.022Z,87.00
2018-10-06T09:26:51.532Z,87.00
2018-10-06T09:27:53.157Z,87.00
2018-10-06T09:28:53.648Z,87.00
2018-10-06T09:29:55.336Z,87.00
2018-10-06T09:30:56.032Z,87.00
2018-10-06T09:31:56.279Z,87.00
2018-10-06T09:32:56.793Z,86.00
2018-10-06T09:33:57.388Z,87.00
2018-10-06T09:34:57.953Z,81.00
2018-10-06T09:35:58.491Z,87.00
2018-10-06T09:36:59.053Z,86.00
2018-10-06T09:37:59.556Z,87.00
2018-10-06T09:39:01.260Z,87.00
2018-10-06T09:40:01.766Z,84.00
2018-10-06T09:41:02.282Z,87.00
2018-10-06T09:42:03.014Z,87.00
2018-10-06T09:43:03.323Z,87.00
2018-10-06T09:44:03.833Z,87.00
2018-10-06T09:45:04.337Z,87.00
2018-10-06T09:46:04.869Z,87.00
2018-10-06T09:47:05.400Z,87.00
2018-10-06T09:48:06.064Z,87.00
2018-10-06T09:49:06.533Z,87.00
2018-10-06T09:50:07.075Z,84.00
2018-10-06T09:51:07.659Z,83.00
2018-10-06T09:52:09.335Z,87.00
2018-10-06T09:53:09.843Z,85.00
2018-10-06T09:54:10.365Z,87.00
2018-10-06T09:55:10.882Z,87.00
2018-10-06T09:56:11.409Z,75.00
2018-10-06T09:59:47.624Z,0.00
2018-10-06T10:03:23.525Z,87.00
2018-10-06T10:04:24.385Z,87.00
2018-10-06T10:07:18.562Z,87.00
2018-10-06T10:08:19.372Z,87.00
2018-10-06T10:15:37.571Z,87.00
2018-10-06T10:17:45.312Z,87.00
2018-10-06T10:24:24.966Z,87.00
2018-10-06T10:26:29.660Z,87.00
2018-10-06T10:28:07.954Z,87.00
2018-10-06T10:29:08.124Z,87.00
2018-10-06T10:30:13.252Z,87.00
2018-10-06T10:31:13.665Z,87.00
2018-10-06T12:51:40.859Z,87.00
2018-10-06T12:52:41.500Z,87.00
2018-10-06T12:53:42.169Z,87.00
2018-10-06T12:54:42.933Z,87.00
2018-10-06T12:55:43.554Z,87.00
2018-10-06T12:56:45.236Z,87.00
2018-10-06T12:57:45.946Z,87.00
2018-10-06T12:58:46.678Z,87.00
2018-10-06T12:59:47.381Z,87.00
2018-10-06T13:00:54.057Z,87.00
2018-10-06T13:01:54.734Z,87.00
2018-10-06T13:02:57.460Z,87.00
2018-10-06T13:03:58.130Z,87.00
2018-10-06T13:05:04.549Z,87.00
2018-10-06T13:06:05.238Z,87.00
2018-10-06T13:15:31.345Z,87.00
2018-10-06T14:05:38.269Z,87.00
2018-10-06T14:06:38.969Z,87.00
2018-10-06T14:07:39.613Z,87.00
2018-10-06T14:08:40.278Z,87.00
2018-10-06T14:09:40.947Z,87.00
2018-10-06T14:10:41.682Z,87.00
2018-10-06T14:11:42.346Z,87.00
2018-10-06T14:12:43.017Z,87.00
2018-10-06T14:13:43.684Z,87.00
2018-10-06T14:14:44.438Z,87.00
2018-10-06T14:15:45.050Z,87.00
2018-10-06T14:16:46.047Z,87.00
2018-10-06T14:17:46.705Z,87.00
2018-10-06T14:18:47.367Z,87.00
2018-10-06T14:19:48.081Z,87.00
2018-10-06T14:20:48.715Z,87.00
2018-10-06T14:21:49.381Z,87.00
2018-10-06T14:22:50.086Z,87.00
2018-10-06T14:23:50.749Z,87.00
2018-10-06T14:24:51.419Z,87.00
2018-10-06T14:25:52.103Z,87.00
2018-10-06T14:26:52.909Z,87.00
2018-10-06T14:27:53.590Z,87.00
2018-10-06T14:28:54.373Z,87.00
2018-10-06T14:29:54.968Z,87.00
2018-10-06T14:30:55.631Z,87.00
2018-10-06T14:31:56.308Z,87.00
2018-10-06T14:32:56.968Z,87.00
2018-10-06T14:33:57.635Z,87.00
2018-10-06T14:34:58.322Z,87.00
2018-10-06T14:35:58.980Z,87.00
2018-10-06T14:36:59.765Z,87.00
2018-10-06T14:38:00.445Z,87.00
2018-10-06T14:39:01.158Z,87.00
2018-10-06T14:40:01.828Z,87.00
2018-10-06T14:41:02.491Z,87.00
2018-10-06T14:46:16.156Z,0.00
2018-10-06T14:48:11.968Z,0.00
2018-10-06T14:49:12.879Z,0.00
2018-10-06T14:53:56.013Z,0.00
2018-10-06T14:54:56.639Z,0.00
2018-10-06T14:55:57.367Z,0.00
2018-10-06T15:09:08.836Z,0.00
2018-10-06T15:10:09.558Z,0.00
2018-10-06T15:35:56.641Z,0.00
2018-10-06T15:36:57.306Z,0.00
2018-10-06T15:37:58.045Z,0.00
2018-10-06T15:38:58.639Z,0.00
2018-10-06T15:39:59.306Z,0.00
2018-10-06T15:41:00.025Z,0.00
2018-10-06T15:42:00.720Z,0.00
2018-10-06T15:43:01.446Z,0.00
2018-10-06T15:44:02.097Z,0.00
2018-10-06T15:45:02.810Z,0.00
2018-10-06T15:46:03.438Z,0.00
2018-10-06T15:47:04.107Z,0.00
2018-10-06T15:48:04.766Z,0.00
2018-10-06T15:49:05.439Z,0.00
2018-10-06T15:50:06.112Z,0.00
2018-10-06T15:51:06.865Z,0.00
2018-10-06T15:52:07.450Z,0.00
2018-10-06T15:53:08.117Z,0.00
2018-10-06T15:54:08.783Z,0.00
2018-10-06T15:55:09.461Z,0.00
2018-10-06T15:56:10.122Z,0.00
2018-10-06T15:57:10.785Z,0.00
2018-10-06T15:58:11.453Z,0.00
2018-10-06T15:59:12.141Z,0.00
2018-10-06T16:00:12.865Z,0.00
2018-10-06T16:01:13.533Z,0.00
2018-10-06T16:02:14.316Z,0.00
2018-10-06T16:03:15.010Z,0.00
2018-10-06T16:04:15.689Z,0.00
2018-10-06T16:05:16.368Z,0.00
2018-10-06T16:06:17.021Z,0.00
2018-10-06T16:07:17.687Z,0.00
2018-10-06T16:08:18.354Z,0.00
2018-10-06T16:09:19.064Z,0.00
2018-10-06T16:10:19.734Z,0.00
2018-10-06T16:11:20.422Z,0.00
2018-10-06T16:12:21.153Z,0.00
2018-10-06T16:13:21.765Z,0.00
2018-10-06T16:14:22.443Z,0.00
2018-10-06T16:15:23.127Z,0.00
2018-10-06T16:16:23.768Z,0.00
2018-10-06T16:18:43.543Z,0.00
2018-10-06T16:19:44.856Z,0.00
2018-10-06T16:20:45.514Z,0.00
2018-10-06T16:21:46.305Z,0.00
2018-10-06T16:22:46.945Z,0.00
2018-10-06T16:23:47.739Z,0.00
2018-10-06T16:24:48.418Z,0.00
2018-10-06T16:25:49.812Z,0.00
2018-10-06T16:27:25.367Z,0.00
2018-10-06T16:29:12.024Z,0.00
2018-10-06T16:30:12.592Z,0.00
2018-10-06T16:31:13.060Z,0.00
2018-10-06T16:32:13.632Z,0.00
2018-10-06T16:33:14.026Z,0.00
2018-10-06T16:34:14.529Z,0.00
2018-10-06T16:35:14.983Z,0.00
2018-10-06T16:36:15.472Z,0.00
2018-10-06T16:37:15.926Z,0.00
2018-10-06T16:38:16.427Z,0.00
2018-10-06T16:39:18.041Z,0.00
2018-10-06T16:40:18.540Z,0.00
2018-10-06T16:41:19.021Z,0.00
2018-10-06T16:42:19.484Z,0.00
2018-10-06T16:43:20.021Z,0.00
2018-10-06T16:44:20.514Z,0.00
2018-10-06T16:45:21.019Z,0.00
2018-10-06T16:46:21.511Z,0.00
2018-10-06T16:47:22.017Z,0.00
2018-10-06T16:48:22.624Z,0.00
2018-10-06T16:49:23.112Z,0.00
2018-10-06T16:50:23.613Z,0.00
2018-10-06T16:51:24.104Z,0.00
2018-10-06T16:52:24.609Z,0.00
2018-10-06T16:53:25.102Z,0.00
2018-10-06T16:54:25.601Z,0.00
2018-10-06T16:55:26.121Z,0.00
2018-10-06T16:56:26.617Z,0.00
2018-10-06T16:57:27.075Z,0.00
2018-10-06T16:58:27.519Z,0.00
2018-10-06T16:59:27.972Z,0.00
2018-10-06T17:00:28.488Z,0.00
2018-10-06T17:01:28.862Z,0.00
2018-10-06T17:02:29.455Z,0.00
2018-10-06T17:03:29.967Z,0.00
2018-10-06T17:04:30.601Z,0.00
2018-10-06T17:05:31.114Z,0.00
2018-10-06T17:06:31.654Z,0.00
2018-10-06T17:07:32.127Z,0.00
2018-10-06T17:08:32.790Z,0.00
2018-10-06T17:09:33.231Z,0.00
2018-10-06T17:10:33.747Z,0.00
2018-10-06T17:11:34.390Z,0.00
2018-10-06T17:12:34.971Z,0.00
2018-10-06T17:13:35.424Z,0.00
2018-10-06T17:14:35.894Z,0.00
2018-10-06T17:15:36.587Z,0.00
2018-10-06T17:16:37.086Z,0.00
2018-10-06T17:17:42.795Z,0.00
2018-10-06T18:06:44.331Z,0.00
2018-10-06T18:07:44.936Z,0.00
2018-10-06T18:10:39.028Z,0.00
2018-10-06T18:11:39.635Z,0.00
2018-10-06T18:14:33.735Z,0.00
2018-10-06T18:15:34.348Z,0.00
2018-10-06T18:16:34.941Z,0.00
2018-10-06T18:17:35.545Z,0.00
2018-10-06T18:18:36.149Z,0.00
2018-10-06T18:19:36.753Z,0.00
2018-10-06T18:20:37.463Z,0.00
2018-10-06T18:21:37.977Z,0.00
2018-10-06T18:22:38.515Z,0.00
2018-10-06T18:23:39.122Z,0.00
2018-10-06T18:24:40.239Z,0.00
2018-10-06T18:25:40.834Z,0.00
